Skip Navigation LinksHome page > Tools > METAR decoder Skip Navigation Links

METAR decoder

Settings

METAR

Chicago O'Hare Intl, Chicago

For information only: do not use for flight planning or navigation.
Latest weather
Observation time Sunday, April 20, 2014 10:51 PM CDT
Local time Sunday, April 20, 2014 11:38 PM CDT
Flight conditions Visual Meteorological Conditions
Winds
Wind direction South (180°)
Wind speed 8 mph
Visibility 10 mi.
Sky condition
Ceiling 30,000 ft. broken clouds
Cloud layer few clouds 15,000 ft.
Cloud layer broken clouds 30,000 ft.
Temperature 62°F
Dewpoint 39°F
Altimeter 30.01 in.Hg
Derived measurements
Relative humidity 43%
Density altitude 220 ft.
Sea-level pressure 30.01 in.Hg
Remarks
System requires maintenance.
Automated weather observing station with precipitation discriminator.
METAR KORD 210351Z 18007KT 10SM FEW150 BKN300 17/04 A3001 RMK AO2 SLP161 T01670039 $

InnerDrive.Weather 4.0.4869.0 Release CLR 4.0.30319.18449
Copyright ©2013 Inner Drive Technology. All rights reserved. Portions Copyright ©1986-2013 David Braverman.

Find weather

Site navigation


Skip Navigation Links

Place info

Page info

PayPal - The safer, easier way to pay online!

Return home.

Copyright ©2014 Inner Drive Technology. Purveyors of fine, hand-crafted computer software. Page printed 2014-04-21T04:38:30 UTC.